sensor_id;sensor_type;location;lat;lon;timestamp;pressure;altitude;pressure_sealevel;temperature;humidity
43281;BME280;62175;49.416;8.690;2023-04-28T00:01:52;100318.40;;;16.33;43.11
43281;BME280;62175;49.416;8.690;2023-04-28T00:04:19;100316.05;;;16.37;42.19
43281;BME280;62175;49.416;8.690;2023-04-28T00:06:47;100316.01;;;16.30;42.04
43281;BME280;62175;49.416;8.690;2023-04-28T00:09:14;100313.14;;;16.34;42.07
43281;BME280;62175;49.416;8.690;2023-04-28T00:11:43;100302.60;;;16.40;42.68
43281;BME280;62175;49.416;8.690;2023-04-28T00:14:11;100299.13;;;16.13;43.32
43281;BME280;62175;49.416;8.690;2023-04-28T00:16:37;100295.01;;;16.39;43.86
43281;BME280;62175;49.416;8.690;2023-04-28T00:19:04;100290.35;;;16.19;44.47
43281;BME280;62175;49.416;8.690;2023-04-28T00:21:31;100289.04;;;15.91;44.33
43281;BME280;62175;49.416;8.690;2023-04-28T00:23:59;100287.04;;;15.91;44.26
43281;BME280;62175;49.416;8.690;2023-04-28T00:26:26;100282.09;;;16.20;44.20
43281;BME280;62175;49.416;8.690;2023-04-28T00:28:53;100284.43;;;16.17;46.33
43281;BME280;62175;49.416;8.690;2023-04-28T00:31:20;100271.26;;;16.19;45.44
43281;BME280;62175;49.416;8.690;2023-04-28T00:33:47;100264.26;;;16.22;46.47
43281;BME280;62175;49.416;8.690;2023-04-28T00:36:14;100266.76;;;16.26;46.33
43281;BME280;62175;49.416;8.690;2023-04-28T00:38:41;100261.74;;;16.46;46.42
43281;BME280;62175;49.416;8.690;2023-04-28T00:41:09;100259.29;;;16.08;46.21
43281;BME280;62175;49.416;8.690;2023-04-28T00:43:44;100252.02;;;16.07;46.25
43281;BME280;62175;49.416;8.690;2023-04-28T00:46:19;100250.62;;;16.07;47.50
43281;BME280;62175;49.416;8.690;2023-04-28T00:48:47;100241.70;;;16.13;46.37
43281;BME280;62175;49.416;8.690;2023-04-28T00:51:15;100242.21;;;15.85;47.93
43281;BME280;62175;49.416;8.690;2023-04-28T00:53:42;100244.58;;;15.90;46.94
43281;BME280;62175;49.416;8.690;2023-04-28T00:56:09;100241.87;;;16.16;47.03
43281;BME280;62175;49.416;8.690;2023-04-28T00:58:37;100240.25;;;16.19;46.79
43281;BME280;62175;49.416;8.690;2023-04-28T01:01:05;100241.62;;;15.95;45.95
43281;BME280;62175;49.416;8.690;2023-04-28T01:03:34;100239.97;;;16.03;46.74
43281;BME280;62175;49.416;8.690;2023-04-28T01:06:01;100229.43;;;15.98;46.65
43281;BME280;62175;49.416;8.690;2023-04-28T01:08:29;100226.01;;;16.07;47.58
43281;BME280;62175;49.416;8.690;2023-04-28T01:10:57;100217.38;;;16.29;47.74
43281;BME280;62175;49.416;8.690;2023-04-28T01:13:24;100213.08;;;16.38;48.56
43281;BME280;62175;49.416;8.690;2023-04-28T01:15:51;100213.98;;;16.10;47.10
43281;BME280;62175;49.416;8.690;2023-04-28T01:18:19;100207.78;;;16.39;49.38
43281;BME280;62175;49.416;8.690;2023-04-28T01:20:45;100204.59;;;16.05;47.42
43281;BME280;62175;49.416;8.690;2023-04-28T01:23:13;100202.64;;;16.13;48.64
43281;BME280;62175;49.416;8.690;2023-04-28T01:25:41;100196.92;;;16.39;48.72
43281;BME280;62175;49.416;8.690;2023-04-28T01:28:09;100194.61;;;16.07;49.15
43281;BME280;62175;49.416;8.690;2023-04-28T01:30:36;100194.96;;;16.38;48.02
43281;BME280;62175;49.416;8.690;2023-04-28T01:33:04;100193.30;;;16.09;47.19
43281;BME280;62175;49.416;8.690;2023-04-28T01:35:31;100192.26;;;16.32;47.92
43281;BME280;62175;49.416;8.690;2023-04-28T01:37:58;100191.54;;;16.11;46.92
43281;BME280;62175;49.416;8.690;2023-04-28T01:40:25;100189.07;;;16.12;46.14
43281;BME280;62175;49.416;8.690;2023-04-28T01:42:52;100192.15;;;16.07;46.17
43281;BME280;62175;49.416;8.690;2023-04-28T01:45:19;100187.78;;;16.02;45.14
43281;BME280;62175;49.416;8.690;2023-04-28T01:47:46;100190.01;;;16.38;45.50
43281;BME280;62175;49.416;8.690;2023-04-28T01:50:13;100194.63;;;16.20;45.92
43281;BME280;62175;49.416;8.690;2023-04-28T01:52:40;100190.98;;;16.24;47.04
43281;BME280;62175;49.416;8.690;2023-04-28T01:55:08;100191.03;;;16.30;46.00
43281;BME280;62175;49.416;8.690;2023-04-28T01:57:35;100187.76;;;16.26;46.02
43281;BME280;62175;49.416;8.690;2023-04-28T02:00:02;100185.42;;;16.17;45.36
43281;BME280;62175;49.416;8.690;2023-04-28T02:02:29;100186.72;;;16.21;46.04
43281;BME280;62175;49.416;8.690;2023-04-28T02:04:56;100190.89;;;16.17;46.94
43281;BME280;62175;49.416;8.690;2023-04-28T02:07:23;100196.46;;;16.22;48.11
43281;BME280;62175;49.416;8.690;2023-04-28T02:09:50;100197.80;;;16.23;47.76
43281;BME280;62175;49.416;8.690;2023-04-28T02:12:17;100198.43;;;16.16;47.63
43281;BME280;62175;49.416;8.690;2023-04-28T02:14:44;100188.67;;;16.12;46.98
43281;BME280;62175;49.416;8.690;2023-04-28T02:17:11;100181.17;;;16.14;46.96
43281;BME280;62175;49.416;8.690;2023-04-28T02:19:38;100178.63;;;16.05;47.28
43281;BME280;62175;49.416;8.690;2023-04-28T02:22:05;100190.67;;;16.11;47.29
43281;BME280;62175;49.416;8.690;2023-04-28T02:24:34;100191.60;;;16.12;48.91
43281;BME280;62175;49.416;8.690;2023-04-28T02:27:02;100199.31;;;15.81;47.49
43281;BME280;62175;49.416;8.690;2023-04-28T02:29:29;100199.30;;;16.37;49.12
43281;BME280;62175;49.416;8.690;2023-04-28T02:31:56;100201.09;;;15.84;48.04
43281;BME280;62175;49.416;8.690;2023-04-28T02:34:23;100189.02;;;16.01;48.52
43281;BME280;62175;49.416;8.690;2023-04-28T02:36:50;100186.75;;;15.96;49.09
43281;BME280;62175;49.416;8.690;2023-04-28T02:39:17;100188.25;;;16.01;48.31
43281;BME280;62175;49.416;8.690;2023-04-28T02:41:44;100196.69;;;15.96;49.42
43281;BME280;62175;49.416;8.690;2023-04-28T02:44:11;100194.07;;;15.89;48.51
43281;BME280;62175;49.416;8.690;2023-04-28T02:46:38;100194.89;;;15.96;49.40
43281;BME280;62175;49.416;8.690;2023-04-28T02:49:05;100186.06;;;16.06;48.30
43281;BME280;62175;49.416;8.690;2023-04-28T02:51:33;100181.68;;;16.07;50.56
43281;BME280;62175;49.416;8.690;2023-04-28T02:54:00;100188.86;;;16.02;49.72
43281;BME280;62175;49.416;8.690;2023-04-28T02:56:27;100189.64;;;16.14;49.79
43281;BME280;62175;49.416;8.690;2023-04-28T02:58:54;100188.24;;;15.83;50.40
43281;BME280;62175;49.416;8.690;2023-04-28T03:01:21;100194.16;;;16.00;51.96
43281;BME280;62175;49.416;8.690;2023-04-28T03:03:48;100191.04;;;16.20;49.39
43281;BME280;62175;49.416;8.690;2023-04-28T03:06:15;100184.50;;;15.56;49.90
43281;BME280;62175;49.416;8.690;2023-04-28T03:08:42;100173.78;;;15.99;49.74
43281;BME280;62175;49.416;8.690;2023-04-28T03:11:09;100167.60;;;16.00;50.21
43281;BME280;62175;49.416;8.690;2023-04-28T03:13:36;100160.62;;;15.92;50.56
43281;BME280;62175;49.416;8.690;2023-04-28T03:16:04;100153.53;;;15.58;50.63
43281;BME280;62175;49.416;8.690;2023-04-28T03:18:31;100148.67;;;15.94;50.44
43281;BME280;62175;49.416;8.690;2023-04-28T03:20:58;100147.26;;;16.06;50.57
43281;BME280;62175;49.416;8.690;2023-04-28T03:23:25;100141.25;;;15.47;52.02
43281;BME280;62175;49.416;8.690;2023-04-28T03:25:53;100134.69;;;15.93;51.33
43281;BME280;62175;49.416;8.690;2023-04-28T03:28:19;100133.20;;;15.66;53.84
43281;BME280;62175;49.416;8.690;2023-04-28T03:30:47;100129.58;;;15.47;52.63
43281;BME280;62175;49.416;8.690;2023-04-28T03:33:14;100123.73;;;15.93;53.06
43281;BME280;62175;49.416;8.690;2023-04-28T03:35:41;100125.69;;;15.67;52.64
43281;BME280;62175;49.416;8.690;2023-04-28T03:38:08;100126.83;;;15.94;51.67
43281;BME280;62175;49.416;8.690;2023-04-28T03:40:35;100120.56;;;15.55;53.82
43281;BME280;62175;49.416;8.690;2023-04-28T03:43:02;100114.95;;;15.67;52.93
43281;BME280;62175;49.416;8.690;2023-04-28T03:45:29;100121.93;;;15.74;53.58
43281;BME280;62175;49.416;8.690;2023-04-28T03:47:56;100124.40;;;15.99;51.34
43281;BME280;62175;49.416;8.690;2023-04-28T03:50:24;100146.81;;;15.86;52.25
43281;BME280;62175;49.416;8.690;2023-04-28T03:52:50;100146.60;;;15.74;52.76
43281;BME280;62175;49.416;8.690;2023-04-28T03:55:18;100140.98;;;15.72;52.00
43281;BME280;62175;49.416;8.690;2023-04-28T03:57:45;100145.50;;;15.91;51.09
43281;BME280;62175;49.416;8.690;2023-04-28T04:00:13;100146.42;;;15.46;52.18
43281;BME280;62175;49.416;8.690;2023-04-28T04:02:40;100146.69;;;15.25;52.99
43281;BME280;62175;49.416;8.690;2023-04-28T04:05:07;100145.54;;;15.51;54.38
43281;BME280;62175;49.416;8.690;2023-04-28T04:07:34;100151.95;;;15.78;54.02
43281;BME280;62175;49.416;8.690;2023-04-28T04:10:01;100145.28;;;15.70;52.47
43281;BME280;62175;49.416;8.690;2023-04-28T04:12:28;100145.88;;;15.65;53.97
43281;BME280;62175;49.416;8.690;2023-04-28T04:14:55;100145.58;;;15.63;54.54
43281;BME280;62175;49.416;8.690;2023-04-28T04:17:22;100145.75;;;15.25;54.76
43281;BME280;62175;49.416;8.690;2023-04-28T04:19:49;100149.90;;;15.28;54.75
43281;BME280;62175;49.416;8.690;2023-04-28T04:22:16;100151.87;;;15.40;54.22
43281;BME280;62175;49.416;8.690;2023-04-28T04:24:43;100161.24;;;15.42;53.87
43281;BME280;62175;49.416;8.690;2023-04-28T04:27:10;100165.83;;;15.25;54.02
43281;BME280;62175;49.416;8.690;2023-04-28T04:29:38;100168.70;;;15.44;55.52
43281;BME280;62175;49.416;8.690;2023-04-28T04:32:05;100162.39;;;15.29;55.23
43281;BME280;62175;49.416;8.690;2023-04-28T04:34:32;100161.35;;;15.20;54.19
43281;BME280;62175;49.416;8.690;2023-04-28T04:36:59;100157.48;;;15.28;55.80
43281;BME280;62175;49.416;8.690;2023-04-28T04:39:26;100151.26;;;15.36;54.33
43281;BME280;62175;49.416;8.690;2023-04-28T04:41:53;100153.85;;;15.33;54.84
43281;BME280;62175;49.416;8.690;2023-04-28T04:44:20;100154.77;;;15.03;56.46
43281;BME280;62175;49.416;8.690;2023-04-28T04:46:48;100152.12;;;15.33;56.23
43281;BME280;62175;49.416;8.690;2023-04-28T04:49:15;100152.73;;;15.26;57.39
43281;BME280;62175;49.416;8.690;2023-04-28T04:51:42;100153.35;;;15.39;55.62
43281;BME280;62175;49.416;8.690;2023-04-28T04:54:09;100160.15;;;15.50;55.90
43281;BME280;62175;49.416;8.690;2023-04-28T04:56:36;100151.19;;;15.38;58.00
43281;BME280;62175;49.416;8.690;2023-04-28T04:59:03;100159.73;;;15.28;58.13
43281;BME280;62175;49.416;8.690;2023-04-28T05:01:30;100157.98;;;15.61;55.66
43281;BME280;62175;49.416;8.690;2023-04-28T05:03:57;100147.03;;;15.55;55.55
43281;BME280;62175;49.416;8.690;2023-04-28T05:06:24;100141.87;;;15.38;56.36
43281;BME280;62175;49.416;8.690;2023-04-28T05:08:51;100138.49;;;15.57;57.81
43281;BME280;62175;49.416;8.690;2023-04-28T05:11:19;100139.72;;;15.37;58.50
43281;BME280;62175;49.416;8.690;2023-04-28T05:13:45;100140.28;;;15.44;58.59
43281;BME280;62175;49.416;8.690;2023-04-28T05:16:13;100139.74;;;15.11;57.85
43281;BME280;62175;49.416;8.690;2023-04-28T05:18:40;100143.59;;;15.33;59.15
43281;BME280;62175;49.416;8.690;2023-04-28T05:21:07;100145.81;;;15.28;57.30
43281;BME280;62175;49.416;8.690;2023-04-28T05:23:34;100148.66;;;15.32;59.59
43281;BME280;62175;49.416;8.690;2023-04-28T05:26:01;100152.36;;;15.20;57.43
43281;BME280;62175;49.416;8.690;2023-04-28T05:28:28;100152.24;;;15.35;57.74
43281;BME280;62175;49.416;8.690;2023-04-28T05:30:55;100144.12;;;15.09;58.90
43281;BME280;62175;49.416;8.690;2023-04-28T05:33:23;100143.22;;;15.12;58.23
43281;BME280;62175;49.416;8.690;2023-04-28T05:35:49;100140.18;;;15.09;60.76
43281;BME280;62175;49.416;8.690;2023-04-28T05:38:17;100143.47;;;15.06;58.07
43281;BME280;62175;49.416;8.690;2023-04-28T05:40:44;100141.82;;;14.90;60.33
43281;BME280;62175;49.416;8.690;2023-04-28T05:43:11;100147.56;;;14.88;58.52
43281;BME280;62175;49.416;8.690;2023-04-28T05:45:37;100148.31;;;14.92;58.45
43281;BME280;62175;49.416;8.690;2023-04-28T05:48:05;100149.42;;;14.78;61.25
43281;BME280;62175;49.416;8.690;2023-04-28T05:50:31;100145.99;;;14.96;60.22
43281;BME280;62175;49.416;8.690;2023-04-28T05:52:59;100140.47;;;15.18;58.31
43281;BME280;62175;49.416;8.690;2023-04-28T05:55:26;100135.22;;;15.04;58.19
43281;BME280;62175;49.416;8.690;2023-04-28T05:57:53;100143.61;;;15.11;60.80
43281;BME280;62175;49.416;8.690;2023-04-28T06:00:20;100145.01;;;15.08;61.51
43281;BME280;62175;49.416;8.690;2023-04-28T06:02:47;100141.54;;;15.12;61.83
43281;BME280;62175;49.416;8.690;2023-04-28T06:05:15;100146.60;;;15.31;58.95
43281;BME280;62175;49.416;8.690;2023-04-28T06:07:41;100142.72;;;15.25;61.10
43281;BME280;62175;49.416;8.690;2023-04-28T06:10:09;100141.10;;;15.33;58.96
43281;BME280;62175;49.416;8.690;2023-04-28T06:12:37;100142.40;;;15.12;62.15
43281;BME280;62175;49.416;8.690;2023-04-28T06:15:05;100152.13;;;14.92;62.47
43281;BME280;62175;49.416;8.690;2023-04-28T06:17:32;100155.39;;;15.08;60.29
43281;BME280;62175;49.416;8.690;2023-04-28T06:19:59;100152.01;;;15.16;61.70
43281;BME280;62175;49.416;8.690;2023-04-28T06:22:26;100155.02;;;15.16;61.95
43281;BME280;62175;49.416;8.690;2023-04-28T06:24:53;100168.25;;;15.04;62.86
43281;BME280;62175;49.416;8.690;2023-04-28T06:27:20;100180.16;;;15.10;61.52
43281;BME280;62175;49.416;8.690;2023-04-28T06:29:47;100184.72;;;14.88;62.45
43281;BME280;62175;49.416;8.690;2023-04-28T06:32:14;100190.51;;;15.02;62.38
43281;BME280;62175;49.416;8.690;2023-04-28T06:34:41;100199.89;;;15.05;61.97
43281;BME280;62175;49.416;8.690;2023-04-28T06:37:08;100205.22;;;15.27;62.20
43281;BME280;62175;49.416;8.690;2023-04-28T06:39:36;100203.58;;;15.33;61.90
43281;BME280;62175;49.416;8.690;2023-04-28T06:42:02;100193.33;;;15.15;62.68
43281;BME280;62175;49.416;8.690;2023-04-28T06:44:29;100182.06;;;15.18;62.47
43281;BME280;62175;49.416;8.690;2023-04-28T06:46:56;100165.46;;;15.42;61.45
43281;BME280;62175;49.416;8.690;2023-04-28T06:49:24;100166.83;;;15.10;61.68
43281;BME280;62175;49.416;8.690;2023-04-28T06:51:51;100164.11;;;15.12;61.29
43281;BME280;62175;49.416;8.690;2023-04-28T06:54:19;100151.31;;;15.10;63.07
43281;BME280;62175;49.416;8.690;2023-04-28T06:56:46;100161.50;;;15.13;63.08
43281;BME280;62175;49.416;8.690;2023-04-28T06:59:13;100160.97;;;15.06;61.89
43281;BME280;62175;49.416;8.690;2023-04-28T07:01:40;100154.50;;;15.26;61.54
43281;BME280;62175;49.416;8.690;2023-04-28T07:04:07;100156.09;;;15.33;61.39
43281;BME280;62175;49.416;8.690;2023-04-28T07:06:34;100149.52;;;15.36;60.78
43281;BME280;62175;49.416;8.690;2023-04-28T07:09:02;100150.02;;;15.16;63.04
43281;BME280;62175;49.416;8.690;2023-04-28T07:11:29;100157.40;;;15.45;63.28
43281;BME280;62175;49.416;8.690;2023-04-28T07:13:56;100149.55;;;15.18;63.54
43281;BME280;62175;49.416;8.690;2023-04-28T07:16:23;100153.72;;;15.25;62.70
43281;BME280;62175;49.416;8.690;2023-04-28T07:18:50;100154.85;;;15.25;62.00
43281;BME280;62175;49.416;8.690;2023-04-28T07:21:17;100161.30;;;15.35;63.09
43281;BME280;62175;49.416;8.690;2023-04-28T07:23:44;100157.23;;;15.58;61.32
43281;BME280;62175;49.416;8.690;2023-04-28T07:26:11;100158.35;;;15.41;61.54
43281;BME280;62175;49.416;8.690;2023-04-28T07:28:38;100161.60;;;15.46;63.85
43281;BME280;62175;49.416;8.690;2023-04-28T07:31:05;100156.28;;;15.55;61.18
43281;BME280;62175;49.416;8.690;2023-04-28T07:33:32;100155.86;;;15.52;64.02
43281;BME280;62175;49.416;8.690;2023-04-28T07:36:00;100158.98;;;15.54;60.03
43281;BME280;62175;49.416;8.690;2023-04-28T07:38:27;100160.62;;;15.55;61.83
43281;BME280;62175;49.416;8.690;2023-04-28T07:40:54;100167.81;;;15.08;63.92
43281;BME280;62175;49.416;8.690;2023-04-28T07:43:21;100165.08;;;15.43;61.85
43281;BME280;62175;49.416;8.690;2023-04-28T07:45:48;100166.22;;;15.47;63.26
43281;BME280;62175;49.416;8.690;2023-04-28T07:48:15;100162.41;;;15.50;63.94
43281;BME280;62175;49.416;8.690;2023-04-28T07:50:42;100153.85;;;15.57;62.62
43281;BME280;62175;49.416;8.690;2023-04-28T07:53:09;100152.13;;;15.51;64.04
43281;BME280;62175;49.416;8.690;2023-04-28T07:55:36;100149.18;;;15.71;60.74
43281;BME280;62175;49.416;8.690;2023-04-28T07:58:03;100149.16;;;15.59;64.10
43281;BME280;62175;49.416;8.690;2023-04-28T08:00:30;100146.03;;;15.27;63.85
43281;BME280;62175;49.416;8.690;2023-04-28T08:02:57;100140.42;;;15.29;60.72
43281;BME280;62175;49.416;8.690;2023-04-28T08:05:25;100138.71;;;15.73;63.85
43281;BME280;62175;49.416;8.690;2023-04-28T08:07:52;100144.38;;;15.75;61.43
43281;BME280;62175;49.416;8.690;2023-04-28T08:10:19;100148.84;;;15.52;62.44
43281;BME280;62175;49.416;8.690;2023-04-28T08:12:46;100144.55;;;15.67;61.82
43281;BME280;62175;49.416;8.690;2023-04-28T08:15:13;100147.65;;;15.74;64.03
43281;BME280;62175;49.416;8.690;2023-04-28T08:17:40;100146.01;;;15.79;63.77
43281;BME280;62175;49.416;8.690;2023-04-28T08:20:08;100145.52;;;15.45;62.87
43281;BME280;62175;49.416;8.690;2023-04-28T08:22:35;100148.66;;;15.65;60.58
43281;BME280;62175;49.416;8.690;2023-04-28T08:25:03;100144.08;;;15.47;60.03
43281;BME280;62175;49.416;8.690;2023-04-28T08:27:30;100149.22;;;15.60;63.66
43281;BME280;62175;49.416;8.690;2023-04-28T08:29:57;100146.12;;;15.68;61.98
43281;BME280;62175;49.416;8.690;2023-04-28T08:32:24;100134.95;;;15.78;62.90
43281;BME280;62175;49.416;8.690;2023-04-28T08:34:51;100136.89;;;15.65;64.16
43281;BME280;62175;49.416;8.690;2023-04-28T08:37:19;100142.24;;;15.84;63.67
43281;BME280;62175;49.416;8.690;2023-04-28T08:39:46;100140.57;;;15.71;62.71
43281;BME280;62175;49.416;8.690;2023-04-28T08:42:13;100142.85;;;15.97;63.18
43281;BME280;62175;49.416;8.690;2023-04-28T08:44:40;100148.62;;;15.82;64.19
43281;BME280;62175;49.416;8.690;2023-04-28T08:47:12;100152.10;;;15.96;61.99
43281;BME280;62175;49.416;8.690;2023-04-28T08:49:41;100146.57;;;15.96;63.06
43281;BME280;62175;49.416;8.690;2023-04-28T08:52:12;100154.00;;;15.84;61.61
43281;BME280;62175;49.416;8.690;2023-04-28T08:54:43;100157.02;;;15.96;62.54
43281;BME280;62175;49.416;8.690;2023-04-28T08:57:12;100153.18;;;16.16;64.63
43281;BME280;62175;49.416;8.690;2023-04-28T08:59:41;100152.21;;;15.70;64.32
43281;BME280;62175;49.416;8.690;2023-04-28T09:02:08;100148.45;;;16.31;60.70
43281;BME280;62175;49.416;8.690;2023-04-28T09:04:36;100140.37;;;15.92;61.59
43281;BME280;62175;49.416;8.690;2023-04-28T09:08:16;100147.67;;;16.01;61.98
43281;BME280;62175;49.416;8.690;2023-04-28T09:10:44;100153.04;;;16.22;60.90
43281;BME280;62175;49.416;8.690;2023-04-28T09:13:24;100149.77;;;15.85;63.75
43281;BME280;62175;49.416;8.690;2023-04-28T09:15:59;100150.08;;;16.00;63.37
43281;BME280;62175;49.416;8.690;2023-04-28T09:18:27;100154.79;;;16.24;64.78
43281;BME280;62175;49.416;8.690;2023-04-28T09:21:02;100152.65;;;15.68;64.93
43281;BME280;62175;49.416;8.690;2023-04-28T09:23:30;100154.85;;;15.89;63.63
43281;BME280;62175;49.416;8.690;2023-04-28T09:25:59;100160.01;;;15.70;65.45
43281;BME280;62175;49.416;8.690;2023-04-28T09:28:26;100155.91;;;15.89;62.98
43281;BME280;62175;49.416;8.690;2023-04-28T09:30:54;100153.73;;;15.92;62.06
43281;BME280;62175;49.416;8.690;2023-04-28T09:33:21;100152.97;;;15.58;64.75
43281;BME280;62175;49.416;8.690;2023-04-28T09:35:48;100163.43;;;15.91;65.63
43281;BME280;62175;49.416;8.690;2023-04-28T09:38:16;100158.39;;;15.84;64.14
43281;BME280;62175;49.416;8.690;2023-04-28T09:40:53;100153.86;;;15.79;65.20
43281;BME280;62175;49.416;8.690;2023-04-28T09:43:24;100155.19;;;16.01;64.99
43281;BME280;62175;49.416;8.690;2023-04-28T09:45:51;100157.21;;;16.13;63.39
43281;BME280;62175;49.416;8.690;2023-04-28T09:48:27;100151.60;;;15.72;64.67
43281;BME280;62175;49.416;8.690;2023-04-28T09:50:54;100149.99;;;15.90;64.85
43281;BME280;62175;49.416;8.690;2023-04-28T09:53:22;100152.17;;;15.96;63.26
43281;BME280;62175;49.416;8.690;2023-04-28T09:55:51;100149.84;;;15.69;62.82
43281;BME280;62175;49.416;8.690;2023-04-28T09:58:19;100149.85;;;16.37;66.13
43281;BME280;62175;49.416;8.690;2023-04-28T10:00:51;100150.50;;;15.99;64.13
43281;BME280;62175;49.416;8.690;2023-04-28T10:03:21;100156.38;;;15.88;63.08
43281;BME280;62175;49.416;8.690;2023-04-28T10:05:50;100152.57;;;15.90;65.57
43281;BME280;62175;49.416;8.690;2023-04-28T10:08:18;100148.48;;;15.93;62.90
43281;BME280;62175;49.416;8.690;2023-04-28T10:10:46;100149.13;;;16.29;65.37
43281;BME280;62175;49.416;8.690;2023-04-28T10:13:15;100148.86;;;15.96;64.64
43281;BME280;62175;49.416;8.690;2023-04-28T10:15:43;100148.79;;;16.01;66.35
43281;BME280;62175;49.416;8.690;2023-04-28T10:18:11;100153.53;;;15.97;66.84
43281;BME280;62175;49.416;8.690;2023-04-28T10:20:39;100154.15;;;16.09;63.81
43281;BME280;62175;49.416;8.690;2023-04-28T10:23:38;100153.81;;;16.23;66.87
43281;BME280;62175;49.416;8.690;2023-04-28T10:26:12;100157.18;;;16.18;63.68
43281;BME280;62175;49.416;8.690;2023-04-28T10:28:45;100155.83;;;15.76;63.10
43281;BME280;62175;49.416;8.690;2023-04-28T10:31:13;100156.25;;;16.03;63.87
43281;BME280;62175;49.416;8.690;2023-04-28T10:33:41;100155.61;;;16.00;63.72
43281;BME280;62175;49.416;8.690;2023-04-28T10:36:09;100158.02;;;16.06;63.23
43281;BME280;62175;49.416;8.690;2023-04-28T10:39:07;100156.58;;;16.01;66.16
43281;BME280;62175;49.416;8.690;2023-04-28T10:41:35;100157.77;;;16.02;64.25
43281;BME280;62175;49.416;8.690;2023-04-28T10:44:40;100156.19;;;16.11;64.79
43281;BME280;62175;49.416;8.690;2023-04-28T10:47:08;100151.06;;;15.92;66.84
43281;BME280;62175;49.416;8.690;2023-04-28T10:50:08;100146.83;;;15.95;65.81
43281;BME280;62175;49.416;8.690;2023-04-28T10:52:51;100145.96;;;16.38;64.49
43281;BME280;62175;49.416;8.690;2023-04-28T10:55:34;100138.11;;;16.38;67.39
43281;BME280;62175;49.416;8.690;2023-04-28T10:58:34;100136.06;;;16.14;66.78
43281;BME280;62175;49.416;8.690;2023-04-28T11:01:33;100131.83;;;16.31;67.13
43281;BME280;62175;49.416;8.690;2023-04-28T11:04:07;100130.53;;;16.26;65.39
43281;BME280;62175;49.416;8.690;2023-04-28T11:06:35;100129.57;;;16.20;64.44
43281;BME280;62175;49.416;8.690;2023-04-28T11:09:46;100128.69;;;16.11;65.17
43281;BME280;62175;49.416;8.690;2023-04-28T11:12:13;100128.51;;;16.27;65.76
43281;BME280;62175;49.416;8.690;2023-04-28T11:14:41;100116.85;;;16.26;64.51
43281;BME280;62175;49.416;8.690;2023-04-28T11:17:08;100119.06;;;16.15;64.93
43281;BME280;62175;49.416;8.690;2023-04-28T11:19:36;100125.97;;;16.42;64.81
43281;BME280;62175;49.416;8.690;2023-04-28T11:22:05;100126.97;;;16.02;66.05
43281;BME280;62175;49.416;8.690;2023-04-28T11:24:32;100125.15;;;16.19;66.33
43281;BME280;62175;49.416;8.690;2023-04-28T11:26:59;100124.02;;;16.24;67.45
43281;BME280;62175;49.416;8.690;2023-04-28T11:29:31;100123.88;;;16.34;67.20
43281;BME280;62175;49.416;8.690;2023-04-28T11:31:59;100123.25;;;16.29;68.02
43281;BME280;62175;49.416;8.690;2023-04-28T11:34:27;100124.53;;;16.23;68.25
43281;BME280;62175;49.416;8.690;2023-04-28T11:36:54;100121.21;;;16.26;66.42
43281;BME280;62175;49.416;8.690;2023-04-28T11:39:27;100124.70;;;16.35;66.58
43281;BME280;62175;49.416;8.690;2023-04-28T11:41:55;100125.83;;;16.14;66.13
43281;BME280;62175;49.416;8.690;2023-04-28T11:44:23;100124.26;;;16.38;66.29
43281;BME280;62175;49.416;8.690;2023-04-28T11:46:52;100122.75;;;16.30;66.93
43281;BME280;62175;49.416;8.690;2023-04-28T11:49:20;100124.54;;;16.44;68.82
43281;BME280;62175;49.416;8.690;2023-04-28T11:51:48;100126.63;;;16.36;66.20
43281;BME280;62175;49.416;8.690;2023-04-28T11:54:20;100130.02;;;16.42;66.03
43281;BME280;62175;49.416;8.690;2023-04-28T11:56:48;100129.34;;;16.39;65.65
43281;BME280;62175;49.416;8.690;2023-04-28T11:59:15;100116.05;;;16.41;67.27
43281;BME280;62175;49.416;8.690;2023-04-28T12:01:45;100117.18;;;16.39;67.89
43281;BME280;62175;49.416;8.690;2023-04-28T12:04:12;100111.79;;;16.51;66.90
43281;BME280;62175;49.416;8.690;2023-04-28T12:06:40;100123.06;;;16.43;65.34
43281;BME280;62175;49.416;8.690;2023-04-28T12:09:16;100129.20;;;16.60;68.33
43281;BME280;62175;49.416;8.690;2023-04-28T12:12:00;100145.61;;;16.29;68.03
43281;BME280;62175;49.416;8.690;2023-04-28T12:14:28;100131.27;;;16.27;66.41
43281;BME280;62175;49.416;8.690;2023-04-28T12:16:56;100128.04;;;16.41;66.70
43281;BME280;62175;49.416;8.690;2023-04-28T12:19:22;100130.41;;;16.75;69.66
43281;BME280;62175;49.416;8.690;2023-04-28T12:22:23;100139.21;;;16.51;68.73
43281;BME280;62175;49.416;8.690;2023-04-28T12:25:07;100124.97;;;16.05;68.73
43281;BME280;62175;49.416;8.690;2023-04-28T12:27:36;100127.06;;;16.54;65.39
43281;BME280;62175;49.416;8.690;2023-04-28T12:30:30;100141.82;;;16.47;64.01
43281;BME280;62175;49.416;8.690;2023-04-28T12:32:58;100149.96;;;16.55;65.55
43281;BME280;62175;49.416;8.690;2023-04-28T12:35:26;100141.26;;;16.57;66.88
43281;BME280;62175;49.416;8.690;2023-04-28T12:37:54;100140.74;;;16.74;65.25
43281;BME280;62175;49.416;8.690;2023-04-28T12:40:22;100141.49;;;16.29;66.05
43281;BME280;62175;49.416;8.690;2023-04-28T12:42:49;100132.26;;;16.51;65.69
43281;BME280;62175;49.416;8.690;2023-04-28T12:45:16;100118.86;;;16.81;65.58
43281;BME280;62175;49.416;8.690;2023-04-28T12:47:43;100116.44;;;16.50;67.09
43281;BME280;62175;49.416;8.690;2023-04-28T12:50:10;100112.49;;;16.38;67.17
43281;BME280;62175;49.416;8.690;2023-04-28T12:52:37;100120.45;;;16.72;65.30
43281;BME280;62175;49.416;8.690;2023-04-28T12:55:05;100118.30;;;16.72;65.53
43281;BME280;62175;49.416;8.690;2023-04-28T12:57:32;100115.02;;;16.60;65.85
43281;BME280;62175;49.416;8.690;2023-04-28T12:59:59;100115.77;;;16.44;66.99